createdAt,value
2022-10-04T00:02:24.358Z,18.00
2022-10-04T00:04:59.995Z,18.00
2022-10-04T00:07:30.956Z,17.90
2022-10-04T00:10:03.295Z,18.00
2022-10-04T00:12:36.457Z,17.90
2022-10-04T00:15:08.686Z,18.00
2022-10-04T00:17:36.575Z,18.00
2022-10-04T00:20:44.510Z,17.80
2022-10-04T00:23:40.840Z,17.90
2022-10-04T00:26:15.512Z,18.00
2022-10-04T00:28:46.161Z,17.90
2022-10-04T00:31:21.027Z,17.90
2022-10-04T00:33:51.449Z,17.90
2022-10-04T00:36:55.531Z,17.90
2022-10-04T00:39:45.376Z,17.90
2022-10-04T00:42:46.892Z,17.90
2022-10-04T00:45:25.682Z,17.90
2022-10-04T00:48:29.015Z,17.80
2022-10-04T00:51:05.312Z,17.90
2022-10-04T00:53:54.525Z,17.80
2022-10-04T00:56:28.327Z,17.80
2022-10-04T00:59:20.884Z,17.80
2022-10-04T01:01:55.300Z,17.80
2022-10-04T01:04:32.667Z,17.80
2022-10-04T01:07:04.094Z,17.80
2022-10-04T01:09:34.915Z,17.80
2022-10-04T01:12:05.885Z,17.80
2022-10-04T01:14:45.863Z,17.80
2022-10-04T01:17:13.703Z,17.80
2022-10-04T01:19:52.457Z,17.70
2022-10-04T01:22:41.133Z,17.70
2022-10-04T01:25:09.363Z,17.80
2022-10-04T01:27:42.001Z,17.80
2022-10-04T01:30:12.847Z,17.80
2022-10-04T01:32:41.393Z,17.80
2022-10-04T01:35:12.664Z,17.80
2022-10-04T01:37:42.093Z,17.80
2022-10-04T01:40:11.898Z,17.80
2022-10-04T01:42:46.299Z,17.80
2022-10-04T01:45:21.148Z,17.70
2022-10-04T01:47:54.093Z,17.80
2022-10-04T01:50:28.000Z,17.70
2022-10-04T01:53:02.053Z,17.70
2022-10-04T01:55:35.096Z,17.70
2022-10-04T01:58:09.753Z,17.60
2022-10-04T02:00:39.945Z,17.70
2022-10-04T02:03:16.355Z,17.70
2022-10-04T02:05:49.065Z,17.70
2022-10-04T02:08:23.003Z,17.60
2022-10-04T02:10:51.433Z,17.60
2022-10-04T02:13:20.756Z,17.50
2022-10-04T02:15:50.228Z,17.50
2022-10-04T02:18:20.924Z,17.50
2022-10-04T02:20:50.093Z,17.50
2022-10-04T02:23:21.289Z,17.50
2022-10-04T02:25:49.617Z,17.50
2022-10-04T02:28:18.811Z,17.50
2022-10-04T02:31:10.119Z,17.50
2022-10-04T02:33:41.454Z,17.50
2022-10-04T02:36:10.897Z,17.40
2022-10-04T02:38:45.399Z,17.40
2022-10-04T02:41:21.810Z,17.50
2022-10-04T02:43:55.414Z,17.50
2022-10-04T02:46:28.629Z,17.40
2022-10-04T02:48:59.980Z,17.50
2022-10-04T02:51:33.316Z,17.50
2022-10-04T02:54:13.445Z,17.50
2022-10-04T02:56:41.804Z,17.50
2022-10-04T02:59:17.220Z,17.50
2022-10-04T03:01:52.501Z,17.50
2022-10-04T03:04:24.222Z,17.50
2022-10-04T03:06:53.120Z,17.50
2022-10-04T03:09:29.739Z,17.50
2022-10-04T03:11:58.194Z,17.50
2022-10-04T03:14:29.439Z,17.40
2022-10-04T03:17:01.609Z,17.50
2022-10-04T03:19:32.327Z,17.40
2022-10-04T03:22:03.631Z,17.50
2022-10-04T03:24:35.284Z,17.40
2022-10-04T03:27:05.744Z,17.40
2022-10-04T03:29:35.042Z,17.40
2022-10-04T03:32:05.313Z,17.40
2022-10-04T03:34:37.141Z,17.40
2022-10-04T03:37:08.349Z,17.40
2022-10-04T03:39:41.606Z,17.30
2022-10-04T03:42:13.181Z,17.40
2022-10-04T03:44:41.977Z,17.40
2022-10-04T03:47:12.126Z,17.30
2022-10-04T03:49:42.126Z,17.30
2022-10-04T03:52:18.368Z,17.40
2022-10-04T03:54:48.223Z,17.40
2022-10-04T03:57:16.782Z,17.30
2022-10-04T03:59:44.840Z,17.40
2022-10-04T04:02:20.663Z,17.40
2022-10-04T04:04:56.670Z,17.30
2022-10-04T04:07:30.761Z,17.30
2022-10-04T04:10:05.142Z,17.30
2022-10-04T04:12:39.782Z,17.30
2022-10-04T04:15:12.156Z,17.20
2022-10-04T04:17:42.206Z,17.30
2022-10-04T04:20:24.195Z,17.20
2022-10-04T04:23:02.784Z,17.30
2022-10-04T04:25:35.900Z,17.30
2022-10-04T04:28:13.837Z,17.30
2022-10-04T04:30:45.953Z,17.40
2022-10-04T04:33:26.230Z,17.30
2022-10-04T04:36:03.726Z,17.30
2022-10-04T04:38:32.010Z,17.30
2022-10-04T04:41:10.049Z,17.20
2022-10-04T04:43:38.047Z,17.30
2022-10-04T04:46:28.292Z,17.20
2022-10-04T04:49:01.847Z,17.20
2022-10-04T04:51:31.483Z,17.30
2022-10-04T04:54:02.432Z,17.20
2022-10-04T04:56:32.655Z,17.20
2022-10-04T04:59:04.454Z,17.30
2022-10-04T05:01:36.243Z,17.20
2022-10-04T05:04:06.431Z,17.30
2022-10-04T05:06:36.062Z,17.30
2022-10-04T05:09:05.308Z,17.30
2022-10-04T05:11:37.231Z,17.30
2022-10-04T05:14:09.490Z,17.30
2022-10-04T05:16:42.004Z,17.30
2022-10-04T05:19:16.104Z,17.30
2022-10-04T05:21:46.499Z,17.30
2022-10-04T05:24:20.837Z,17.40
2022-10-04T05:26:53.630Z,17.40
2022-10-04T05:29:24.957Z,17.40
2022-10-04T05:31:57.150Z,17.30
2022-10-04T05:34:27.069Z,17.20
2022-10-04T05:37:15.272Z,17.30
2022-10-04T05:39:48.159Z,17.40
2022-10-04T05:42:24.199Z,17.40
2022-10-04T05:44:53.797Z,17.50
2022-10-04T05:47:24.209Z,17.50
2022-10-04T05:49:55.499Z,17.50
2022-10-04T05:52:30.835Z,17.50
2022-10-04T05:55:27.895Z,17.60
2022-10-04T05:58:27.205Z,17.60
2022-10-04T06:01:18.535Z,17.60
2022-10-04T06:04:05.662Z,17.70
2022-10-04T06:06:43.988Z,17.80
2022-10-04T06:09:20.973Z,17.90
2022-10-04T06:12:02.171Z,17.90
2022-10-04T06:15:07.768Z,17.90
2022-10-04T06:17:57.109Z,17.90
2022-10-04T06:20:55.447Z,18.10
2022-10-04T06:23:25.558Z,18.30
2022-10-04T06:25:57.652Z,18.40
2022-10-04T06:28:32.574Z,18.40
2022-10-04T06:31:32.122Z,18.50
2022-10-04T06:34:18.213Z,18.60
2022-10-04T06:37:10.615Z,18.70
2022-10-04T06:40:00.805Z,18.70
2022-10-04T06:42:56.110Z,18.70
2022-10-04T06:45:41.880Z,18.70
2022-10-04T06:48:44.969Z,18.80
2022-10-04T06:51:24.791Z,18.80
2022-10-04T06:54:03.634Z,18.60
2022-10-04T06:56:55.967Z,18.50
2022-10-04T06:59:42.301Z,18.40
2022-10-04T07:02:20.011Z,18.40
2022-10-04T07:05:08.062Z,18.40
2022-10-04T07:07:38.842Z,18.30
2022-10-04T07:10:26.862Z,18.30
2022-10-04T07:13:05.284Z,18.30
2022-10-04T07:15:43.354Z,18.30
2022-10-04T07:18:16.454Z,18.30
2022-10-04T07:20:47.600Z,18.20
2022-10-04T07:23:28.283Z,18.20
2022-10-04T07:25:59.942Z,18.20
2022-10-04T07:28:47.616Z,18.20
2022-10-04T07:31:26.175Z,18.30
2022-10-04T07:33:59.319Z,18.30
2022-10-04T07:36:32.443Z,18.20
2022-10-04T07:39:06.950Z,18.30
2022-10-04T07:41:38.974Z,18.30
2022-10-04T07:44:16.057Z,18.30
2022-10-04T07:46:52.786Z,18.30
2022-10-04T07:49:22.887Z,18.30
2022-10-04T07:52:06.391Z,18.30
2022-10-04T07:54:40.708Z,18.30
2022-10-04T07:57:17.308Z,18.30
2022-10-04T07:59:56.013Z,18.40
2022-10-04T08:02:32.999Z,18.30
2022-10-04T08:05:13.999Z,18.30
2022-10-04T08:08:00.295Z,18.30
2022-10-04T08:10:35.491Z,18.30
2022-10-04T08:13:11.180Z,18.30
2022-10-04T08:15:40.570Z,18.20
2022-10-04T08:18:29.153Z,18.30
2022-10-04T08:20:59.991Z,18.30
2022-10-04T08:24:07.215Z,18.30
2022-10-04T08:26:46.180Z,18.30
2022-10-04T08:29:44.708Z,18.40
2022-10-04T08:32:27.529Z,18.50
2022-10-04T08:35:16.886Z,18.60
2022-10-04T08:38:01.969Z,18.70
2022-10-04T08:41:13.037Z,18.60
2022-10-04T08:44:23.739Z,18.60
2022-10-04T08:47:22.079Z,18.60
2022-10-04T08:50:21.782Z,18.50
2022-10-04T08:53:10.817Z,18.60
2022-10-04T08:55:58.470Z,18.60
2022-10-04T08:59:13.863Z,18.60
2022-10-04T09:02:04.521Z,18.60
2022-10-04T09:04:45.881Z,18.60
2022-10-04T09:07:44.996Z,18.60
2022-10-04T09:10:47.826Z,18.70
2022-10-04T09:13:34.449Z,18.90
2022-10-04T09:16:16.400Z,18.90
2022-10-04T09:18:53.426Z,18.80
2022-10-04T09:21:29.837Z,18.80
2022-10-04T09:24:40.531Z,18.80
2022-10-04T09:27:53.199Z,18.80
2022-10-04T09:30:20.760Z,18.70
2022-10-04T09:33:19.916Z,18.80
2022-10-04T09:36:09.264Z,18.80
2022-10-04T09:39:30.812Z,18.90
2022-10-04T09:42:10.799Z,18.90
2022-10-04T09:45:07.464Z,18.80
2022-10-04T09:47:45.792Z,18.80
2022-10-04T09:50:47.162Z,18.80
2022-10-04T09:53:35.461Z,18.80
2022-10-04T09:56:32.595Z,18.90
2022-10-04T09:59:22.095Z,19.00
2022-10-04T10:02:29.332Z,18.90
2022-10-04T10:05:16.755Z,18.80
2022-10-04T10:07:53.501Z,18.70
2022-10-04T10:10:48.446Z,18.70
2022-10-04T10:13:43.174Z,18.80
2022-10-04T10:16:30.730Z,18.90
2022-10-04T10:19:11.406Z,19.00
2022-10-04T10:21:55.625Z,19.10
2022-10-04T10:24:44.408Z,19.10
2022-10-04T10:27:38.833Z,19.10
2022-10-04T10:30:31.068Z,19.20
2022-10-04T10:33:34.191Z,19.20
2022-10-04T10:36:35.596Z,19.20
2022-10-04T10:39:34.539Z,19.30
2022-10-04T10:42:27.246Z,19.30
2022-10-04T10:45:24.375Z,19.30
2022-10-04T10:48:01.718Z,19.30
2022-10-04T10:51:02.746Z,19.30
2022-10-04T10:54:12.426Z,19.30
2022-10-04T10:56:49.059Z,19.30
2022-10-04T10:59:54.335Z,19.30
2022-10-04T11:02:50.029Z,19.30
2022-10-04T11:06:00.054Z,19.30
2022-10-04T11:09:10.544Z,19.20
2022-10-04T11:11:56.082Z,19.20
2022-10-04T11:14:56.381Z,19.20
2022-10-04T11:17:46.505Z,19.10
2022-10-04T11:20:45.363Z,19.10
2022-10-04T11:23:44.307Z,19.10
2022-10-04T11:26:34.640Z,19.10
2022-10-04T11:29:16.430Z,19.10
2022-10-04T11:32:28.664Z,19.10
2022-10-04T11:35:44.914Z,19.10
2022-10-04T11:38:30.830Z,19.20
2022-10-04T11:41:14.730Z,19.20
2022-10-04T11:44:05.495Z,19.20
2022-10-04T11:46:40.061Z,19.30
2022-10-04T11:49:24.356Z,19.30
2022-10-04T11:52:27.164Z,19.30
2022-10-04T11:55:21.137Z,19.30
2022-10-04T11:57:52.632Z,19.30
2022-10-04T12:00:22.433Z,19.30
2022-10-04T12:03:35.610Z,19.30
2022-10-04T12:06:23.284Z,19.20
2022-10-04T12:09:05.050Z,19.20
2022-10-04T12:12:23.934Z,19.20
2022-10-04T12:15:20.275Z,19.20
2022-10-04T12:18:26.591Z,19.20
2022-10-04T12:21:15.198Z,19.20
2022-10-04T12:24:04.164Z,19.20
2022-10-04T12:27:00.117Z,19.20
2022-10-04T12:29:56.660Z,19.30
2022-10-04T12:32:33.392Z,19.30
2022-10-04T12:35:16.658Z,19.30
2022-10-04T12:38:08.267Z,19.30
2022-10-04T12:40:42.141Z,19.30
2022-10-04T12:43:17.678Z,19.30
2022-10-04T12:45:56.785Z,19.30
2022-10-04T12:48:37.948Z,19.30
2022-10-04T12:51:22.858Z,19.30
2022-10-04T12:54:01.147Z,19.30
2022-10-04T12:56:48.214Z,19.30
2022-10-04T12:59:42.742Z,19.30
2022-10-04T13:02:25.849Z,19.30
2022-10-04T13:04:59.597Z,19.30
2022-10-04T13:07:46.584Z,19.20
2022-10-04T13:10:26.700Z,19.30
2022-10-04T13:13:36.643Z,19.30
2022-10-04T13:19:11.076Z,19.30
2022-10-04T13:22:37.540Z,19.30
2022-10-04T13:25:29.441Z,19.30
2022-10-04T13:28:02.861Z,19.30
2022-10-04T13:30:39.364Z,19.30
2022-10-04T13:33:23.766Z,19.30
2022-10-04T13:35:59.914Z,19.30
2022-10-04T13:39:00.595Z,19.30
2022-10-04T13:41:40.972Z,19.30
2022-10-04T13:44:26.144Z,19.30
2022-10-04T13:47:14.227Z,19.40
2022-10-04T13:50:01.532Z,19.40
2022-10-04T13:53:02.082Z,19.40
